Time,TemperatureF,DewpointF,PressureIn,WindDirection,WindDirectionDegrees,WindSpeedMPH,WindSpeedGustMPH,Humidity,HourlyPrecipIn,Conditions,Clouds,dailyrainin,SoftwareType,DateUTC
2013-08-21 00:02:00,73.0,65.7,29.99,WNW,294,2.0,6.0,78,-0.01,,,0.00,Weather View 32 v70,2013-08-21 10:02:00,
2013-08-21 00:07:00,73.0,65.7,29.99,NW,310,2.0,6.0,78,-0.01,,,0.00,Weather View 32 v70,2013-08-21 10:07:00,
2013-08-21 00:12:00,72.9,65.6,29.99,West,266,3.0,6.0,78,-0.01,,,0.00,Weather View 32 v70,2013-08-21 10:12:00,
2013-08-21 00:17:00,72.9,65.6,29.99,WNW,300,4.0,6.0,78,-0.01,,,0.00,Weather View 32 v70,2013-08-21 10:17:00,
2013-08-21 00:22:00,72.9,66.0,29.99,WNW,291,3.0,6.0,79,-0.01,,,0.00,Weather View 32 v70,2013-08-21 10:22:00,
2013-08-21 00:27:00,72.8,65.9,29.98,NW,306,4.0,6.0,79,-0.01,,,0.00,Weather View 32 v70,2013-08-21 10:27:00,
2013-08-21 00:32:00,72.7,65.8,29.98,NW,309,4.0,6.0,79,-0.01,,,0.00,Weather View 32 v70,2013-08-21 10:32:00,
2013-08-21 00:37:00,72.6,65.3,29.98,WNW,293,4.0,6.0,78,-0.01,,,0.00,Weather View 32 v70,2013-08-21 10:37:00,
2013-08-21 00:42:00,72.6,65.7,29.98,WNW,293,3.0,6.0,79,-0.01,,,0.00,Weather View 32 v70,2013-08-21 10:42:00,
2013-08-21 00:47:00,72.7,65.8,29.98,West,274,5.0,6.0,79,-0.01,,,0.00,Weather View 32 v70,2013-08-21 10:47:00,
2013-08-21 00:52:00,72.7,65.8,29.98,WNW,282,3.0,6.0,79,-0.01,,,0.00,Weather View 32 v70,2013-08-21 10:52:00,
2013-08-21 00:57:00,72.8,65.9,29.98,West,277,4.0,6.0,79,-0.01,,,0.00,Weather View 32 v70,2013-08-21 10:57:00,
2013-08-21 01:02:00,72.9,66.3,29.98,West,275,1.0,6.0,80,0.00,,,0.00,Weather View 32 v70,2013-08-21 11:02:00,
2013-08-21 01:07:00,73.0,66.4,29.98,West,275,0.0,6.0,80,0.00,,,0.00,Weather View 32 v70,2013-08-21 11:07:00,
2013-08-21 01:12:00,73.0,66.4,29.98,West,275,3.0,6.0,80,0.00,,,0.00,Weather View 32 v70,2013-08-21 11:12:00,
2013-08-21 01:17:00,73.0,66.1,29.98,West,267,3.0,6.0,79,0.00,,,0.00,Weather View 32 v70,2013-08-21 11:17:00,
2013-08-21 01:22:00,73.0,66.1,29.98,WSW,252,2.0,5.0,79,0.00,,,0.00,Weather View 32 v70,2013-08-21 11:22:00,
2013-08-21 01:27:00,73.1,66.5,29.97,WSW,251,1.0,5.0,80,0.00,,,0.00,Weather View 32 v70,2013-08-21 11:27:00,
2013-08-21 01:32:00,73.2,66.6,29.97,WNW,285,3.0,5.0,80,0.00,,,0.00,Weather View 32 v70,2013-08-21 11:32:00,
2013-08-21 01:37:00,73.2,66.6,29.97,WNW,287,1.0,5.0,80,0.00,,,0.00,Weather View 32 v70,2013-08-21 11:37:00,
2013-08-21 01:42:00,73.2,66.6,29.97,WNW,282,3.0,5.0,80,0.00,,,0.00,Weather View 32 v70,2013-08-21 11:42:00,
2013-08-21 01:47:00,73.1,66.2,29.97,WNW,296,5.0,5.0,79,0.00,,,0.00,Weather View 32 v70,2013-08-21 11:47:00,
2013-08-21 01:52:00,72.9,66.3,29.97,West,279,3.0,5.0,80,0.00,,,0.00,Weather View 32 v70,2013-08-21 11:52:00,
2013-08-21 01:57:00,72.9,66.3,29.97,West,276,1.0,5.0,80,0.00,,,0.00,Weather View 32 v70,2013-08-21 11:57:00,
2013-08-21 02:02:00,72.8,65.9,29.97,WNW,290,1.0,5.0,79,0.00,,,0.00,Weather View 32 v70,2013-08-21 12:02:00,
2013-08-21 02:07:00,72.8,66.2,29.97,WNW,295,4.0,5.0,80,0.00,,,0.00,Weather View 32 v70,2013-08-21 12:07:00,
2013-08-21 02:12:00,72.7,66.1,29.97,West,274,4.0,5.0,80,0.00,,,0.00,Weather View 32 v70,2013-08-21 12:12:00,
2013-08-21 02:17:00,72.6,66.1,29.96,WNW,291,2.0,5.0,80,0.00,,,0.00,Weather View 32 v70,2013-08-21 12:17:00,
2013-08-21 02:22:00,72.4,66.2,29.97,WNW,293,0.0,5.0,81,0.00,,,0.00,Weather View 32 v70,2013-08-21 12:22:00,
2013-08-21 02:28:00,72.4,66.2,29.96,WNW,299,2.0,5.0,81,0.00,,,0.00,Weather View 32 v70,2013-08-21 12:28:00,
2013-08-21 02:33:00,72.2,66.0,29.96,West,276,3.0,5.0,81,0.00,,,0.00,Weather View 32 v70,2013-08-21 12:33:00,
2013-08-21 02:38:00,72.1,65.9,29.96,WNW,289,4.0,5.0,81,0.00,,,0.00,Weather View 32 v70,2013-08-21 12:38:00,
2013-08-21 02:43:00,72.1,65.6,29.96,WNW,303,3.0,5.0,80,0.00,,,0.00,Weather View 32 v70,2013-08-21 12:43:00,
2013-08-21 02:48:00,72.1,65.9,29.96,WNW,290,0.0,5.0,81,0.00,,,0.00,Weather View 32 v70,2013-08-21 12:48:00,
2013-08-21 02:53:00,72.2,66.0,29.96,WNW,290,3.0,5.0,81,0.00,,,0.00,Weather View 32 v70,2013-08-21 12:53:00,
2013-08-21 02:58:00,72.1,65.9,29.96,WNW,282,3.0,5.0,81,0.00,,,0.00,Weather View 32 v70,2013-08-21 12:58:00,
2013-08-21 03:03:00,72.1,65.6,29.96,West,280,3.0,5.0,80,0.00,,,0.00,Weather View 32 v70,2013-08-21 13:03:00,
2013-08-21 03:08:00,72.0,65.5,29.96,West,278,4.0,5.0,80,0.00,,,0.00,Weather View 32 v70,2013-08-21 13:08:00,
2013-08-21 03:13:00,72.0,65.5,29.96,West,280,3.0,5.0,80,0.00,,,0.00,Weather View 32 v70,2013-08-21 13:13:00,
2013-08-21 03:18:00,72.0,65.5,29.96,WNW,294,2.0,5.0,80,0.00,,,0.00,Weather View 32 v70,2013-08-21 13:18:00,
2013-08-21 03:23:00,72.0,65.5,29.96,NW,307,2.0,5.0,80,0.00,,,0.00,Weather View 32 v70,2013-08-21 13:23:00,
2013-08-21 03:28:00,72.2,66.0,29.96,NW,307,1.0,5.0,81,0.00,,,0.00,Weather View 32 v70,2013-08-21 13:28:00,
2013-08-21 03:33:00,72.3,65.8,29.96,NW,306,0.0,5.0,80,0.00,,,0.00,Weather View 32 v70,2013-08-21 13:33:00,
2013-08-21 03:38:00,72.4,65.9,29.96,NW,306,1.0,5.0,80,0.00,,,0.00,Weather View 32 v70,2013-08-21 13:38:00,
2013-08-21 03:43:00,72.4,65.9,29.95,WNW,285,3.0,5.0,80,0.00,,,0.00,Weather View 32 v70,2013-08-21 13:43:00,
2013-08-21 03:48:00,72.4,65.9,29.95,West,273,4.0,6.0,80,0.00,,,0.00,Weather View 32 v70,2013-08-21 13:48:00,
2013-08-21 03:53:00,72.4,65.9,29.95,West,273,0.0,6.0,80,0.00,,,0.00,Weather View 32 v70,2013-08-21 13:53:00,
2013-08-21 03:58:00,72.4,65.1,29.95,NNW,332,0.0,6.0,78,0.00,,,0.00,Weather View 32 v70,2013-08-21 13:58:00,
2013-08-21 04:03:00,72.6,66.1,29.95,NNW,333,0.0,6.0,80,0.00,,,0.00,Weather View 32 v70,2013-08-21 14:03:00,
2013-08-21 04:08:00,72.6,66.4,29.95,NNW,332,0.0,6.0,81,0.00,,,0.00,Weather View 32 v70,2013-08-21 14:08:00,
2013-08-21 04:13:00,72.6,66.8,29.95,WSW,258,2.0,6.0,82,0.00,,,0.00,Weather View 32 v70,2013-08-21 14:13:00,
2013-08-21 04:18:00,72.6,67.1,29.95,SW,235,2.0,6.0,83,0.00,,,0.00,Weather View 32 v70,2013-08-21 14:18:00,
2013-08-21 04:23:00,72.6,67.1,29.95,SW,235,0.0,6.0,83,0.00,,,0.00,Weather View 32 v70,2013-08-21 14:23:00,
2013-08-21 04:28:00,72.5,67.0,29.95,SW,235,0.0,6.0,83,0.00,,,0.00,Weather View 32 v70,2013-08-21 14:28:00,
2013-08-21 04:33:00,72.4,67.3,29.95,SW,235,0.0,6.0,84,0.00,,,0.00,Weather View 32 v70,2013-08-21 14:33:00,
2013-08-21 04:38:00,72.0,65.8,29.96,WNW,285,4.0,6.0,81,0.00,,,0.00,Weather View 32 v70,2013-08-21 14:38:00,
2013-08-21 04:43:00,71.9,66.1,29.96,WNW,288,3.0,6.0,82,0.00,,,0.00,Weather View 32 v70,2013-08-21 14:43:00,
2013-08-21 04:48:00,71.8,65.6,29.96,WNW,297,2.0,5.0,81,0.00,,,0.00,Weather View 32 v70,2013-08-21 14:48:00,
2013-08-21 04:53:00,71.7,65.2,29.96,WNW,298,2.0,5.0,80,0.00,,,0.00,Weather View 32 v70,2013-08-21 14:53:00,
2013-08-21 04:58:00,72.1,66.3,29.96,NW,326,0.0,5.0,82,0.00,,,0.00,Weather View 32 v70,2013-08-21 14:58:00,
2013-08-21 05:03:00,72.1,66.3,29.96,NW,326,0.0,5.0,82,0.00,,,0.00,Weather View 32 v70,2013-08-21 15:03:00,
2013-08-21 05:08:00,72.0,66.2,29.96,NW,326,0.0,5.0,82,0.00,,,0.00,Weather View 32 v70,2013-08-21 15:08:00,
2013-08-21 05:13:00,72.0,66.5,29.96,WNW,290,3.0,5.0,83,0.00,,,0.00,Weather View 32 v70,2013-08-21 15:13:00,
2013-08-21 05:18:00,72.0,66.9,29.96,WNW,290,0.0,5.0,84,0.00,,,0.00,Weather View 32 v70,2013-08-21 15:18:00,
2013-08-21 05:23:00,72.0,66.9,29.96,WNW,290,1.0,5.0,84,0.00,,,0.00,Weather View 32 v70,2013-08-21 15:23:00,
2013-08-21 05:28:00,72.0,66.9,29.96,WNW,290,0.0,5.0,84,0.00,,,0.00,Weather View 32 v70,2013-08-21 15:28:00,
2013-08-21 05:33:00,71.6,65.8,29.96,NW,312,2.0,5.0,82,0.00,,,0.00,Weather View 32 v70,2013-08-21 15:33:00,
2013-08-21 05:38:00,71.5,65.0,29.96,NW,314,4.0,5.0,80,0.00,,,0.00,Weather View 32 v70,2013-08-21 15:38:00,
2013-08-21 05:43:00,71.7,64.1,29.96,NNW,347,3.0,5.0,77,0.00,,,0.00,Weather View 32 v70,2013-08-21 15:43:00,
2013-08-21 05:48:00,71.9,63.9,29.96,NW,318,4.0,5.0,76,0.00,,,0.00,Weather View 32 v70,2013-08-21 15:48:00,
2013-08-21 05:53:00,72.3,63.5,29.96,NNW,331,2.0,5.0,74,0.00,,,0.00,Weather View 32 v70,2013-08-21 15:53:00,
2013-08-21 05:58:00,72.6,63.4,29.96,NNW,337,3.0,6.0,73,0.00,,,0.00,Weather View 32 v70,2013-08-21 15:58:00,
2013-08-21 06:03:00,72.9,63.3,29.96,NNW,327,4.0,6.0,72,0.00,,,0.00,Weather View 32 v70,2013-08-21 16:03:00,
2013-08-21 06:08:00,73.6,63.2,29.96,NNW,346,7.0,10.0,70,0.00,,,0.00,Weather View 32 v70,2013-08-21 16:08:00,
2013-08-21 06:13:00,74.0,63.1,29.97,NNW,337,5.0,10.0,69,0.00,,,0.00,Weather View 32 v70,2013-08-21 16:13:00,
2013-08-21 06:18:00,73.3,63.7,29.96,North,349,11.0,12.0,72,0.00,,,0.00,Weather View 32 v70,2013-08-21 16:18:00,
2013-08-21 06:23:00,73.1,63.5,29.97,North,350,7.0,12.0,72,0.00,,,0.00,Weather View 32 v70,2013-08-21 16:23:00,
2013-08-21 06:28:00,73.7,64.1,29.97,North,357,12.0,12.0,72,0.00,,,0.00,Weather View 32 v70,2013-08-21 16:28:00,
2013-08-21 06:33:00,74.1,64.5,29.97,NNW,328,7.0,12.0,72,0.00,,,0.00,Weather View 32 v70,2013-08-21 16:33:00,
2013-08-21 06:38:00,74.2,64.6,29.97,NNW,331,1.0,12.0,72,0.00,,,0.00,Weather View 32 v70,2013-08-21 16:38:00,
2013-08-21 06:43:00,74.5,64.8,29.97,NW,321,8.0,12.0,72,0.00,,,0.00,Weather View 32 v70,2013-08-21 16:43:00,
2013-08-21 06:48:00,74.8,65.1,29.97,NNW,328,8.0,12.0,72,0.00,,,0.00,Weather View 32 v70,2013-08-21 16:48:00,
2013-08-21 06:53:00,75.0,64.9,29.97,North,353,5.0,12.0,71,0.00,,,0.00,Weather View 32 v70,2013-08-21 16:53:00,
2013-08-21 06:58:00,75.2,64.7,29.97,NW,316,4.0,12.0,70,0.00,,,0.00,Weather View 32 v70,2013-08-21 16:58:00,
2013-08-21 07:03:00,75.5,65.4,29.97,NW,317,2.0,12.0,71,0.00,,,0.00,Weather View 32 v70,2013-08-21 17:03:00,
2013-08-21 07:08:00,75.7,65.2,29.97,North,359,0.0,12.0,70,0.00,,,0.00,Weather View 32 v70,2013-08-21 17:08:00,
2013-08-21 07:13:00,75.5,66.6,29.98,South,174,7.0,12.0,74,0.00,,,0.00,Weather View 32 v70,2013-08-21 17:13:00,
2013-08-21 07:18:00,74.2,66.5,29.98,South,174,6.0,12.0,77,0.00,,,0.00,Weather View 32 v70,2013-08-21 17:18:00,
2013-08-21 07:23:00,73.8,66.5,29.98,South,191,2.0,12.0,78,0.00,,,0.00,Weather View 32 v70,2013-08-21 17:23:00,
2013-08-21 07:28:00,74.0,66.7,29.98,SE,141,3.0,12.0,78,0.00,,,0.00,Weather View 32 v70,2013-08-21 17:28:00,
2013-08-21 07:33:00,74.5,67.2,29.98,SSE,154,1.0,12.0,78,0.00,,,0.00,Weather View 32 v70,2013-08-21 17:33:00,
2013-08-21 07:38:00,75.1,67.0,29.98,NE,35,0.0,12.0,76,0.00,,,0.00,Weather View 32 v70,2013-08-21 17:38:00,
2013-08-21 07:43:00,75.6,66.7,29.98,NE,43,7.0,12.0,74,0.00,,,0.00,Weather View 32 v70,2013-08-21 17:43:00,
2013-08-21 07:48:00,75.5,66.6,29.98,NNE,16,12.0,12.0,74,0.00,,,0.00,Weather View 32 v70,2013-08-21 17:48:00,
2013-08-21 07:53:00,75.2,66.3,29.98,NNE,20,13.0,13.0,74,0.00,,,0.00,Weather View 32 v70,2013-08-21 17:53:00,
2013-08-21 07:58:00,75.2,65.9,29.98,NNE,24,9.0,14.0,73,0.00,,,0.00,Weather View 32 v70,2013-08-21 17:58:00,
2013-08-21 08:05:00,75.3,66.0,29.98,NNE,17,10.0,16.0,73,0.00,,,0.00,Weather View 32 v70,2013-08-21 18:05:00,
2013-08-21 08:12:00,75.3,66.0,29.98,NNW,339,7.0,16.0,73,0.00,,,0.00,Weather View 32 v70,2013-08-21 18:12:00,
2013-08-21 08:18:00,75.5,65.4,29.98,North,356,9.0,16.0,71,0.00,,,0.00,Weather View 32 v70,2013-08-21 18:18:00,
2013-08-21 08:23:00,75.8,66.1,29.98,NNE,21,12.0,16.0,72,0.00,,,0.00,Weather View 32 v70,2013-08-21 18:23:00,
2013-08-21 08:29:00,75.7,66.0,29.99,NNE,18,11.0,16.0,72,0.00,,,0.00,Weather View 32 v70,2013-08-21 18:29:00,
2013-08-21 08:35:00,75.8,66.5,29.99,North,4,8.0,16.0,73,0.00,,,0.00,Weather View 32 v70,2013-08-21 18:35:00,
2013-08-21 08:40:00,76.0,66.3,29.99,NE,34,10.0,16.0,72,0.00,,,0.00,Weather View 32 v70,2013-08-21 18:40:00,
2013-08-21 08:46:00,76.3,66.2,29.98,NE,41,11.0,16.0,71,0.00,,,0.00,Weather View 32 v70,2013-08-21 18:46:00,
2013-08-21 08:50:00,76.0,66.7,29.99,NE,39,12.0,19.0,73,0.00,,,0.00,Weather View 32 v70,2013-08-21 18:50:00,
2013-08-21 08:53:00,76.0,66.7,29.99,NE,35,15.0,19.0,73,0.00,,,0.00,Weather View 32 v70,2013-08-21 18:53:00,
2013-08-21 08:55:00,75.9,66.6,29.98,NE,40,14.0,19.0,73,0.00,,,0.00,Weather View 32 v70,2013-08-21 18:55:00,
2013-08-21 09:00:00,76.0,67.5,29.99,NE,39,11.0,19.0,75,0.00,,,0.00,Weather View 32 v70,2013-08-21 19:00:00,
2013-08-21 09:06:00,75.8,67.7,29.98,NNE,19,9.0,19.0,76,0.00,,,0.00,Weather View 32 v70,2013-08-21 19:06:00,
2013-08-21 09:12:00,75.7,67.9,29.99,NNE,20,11.0,19.0,77,0.00,,,0.00,Weather View 32 v70,2013-08-21 19:12:00,
2013-08-21 09:18:00,76.5,68.3,29.98,NNE,18,11.0,19.0,76,0.00,,,0.00,Weather View 32 v70,2013-08-21 19:18:00,
2013-08-21 09:20:00,76.6,67.7,29.99,North,353,11.0,19.0,74,0.00,,,0.00,Weather View 32 v70,2013-08-21 19:20:00,
2013-08-21 09:24:00,76.8,67.5,29.99,NNE,29,14.0,19.0,73,0.00,,,0.00,Weather View 32 v70,2013-08-21 19:24:00,
2013-08-21 09:25:00,76.8,67.5,29.98,NNE,29,15.0,19.0,73,0.00,,,0.00,Weather View 32 v70,2013-08-21 19:25:00,
2013-08-21 09:30:00,76.8,66.6,29.99,NNE,22,16.0,19.0,71,0.00,,,0.00,Weather View 32 v70,2013-08-21 19:30:00,
2013-08-21 09:40:00,77.1,67.7,29.98,NNE,26,15.0,19.0,73,0.00,,,0.00,Weather View 32 v70,2013-08-21 19:40:00,
2013-08-21 09:41:00,77.0,67.2,29.99,NNE,18,10.0,19.0,72,0.00,,,0.00,Weather View 32 v70,2013-08-21 19:41:00,
2013-08-21 09:45:00,77.0,67.2,29.98,NNE,23,15.0,19.0,72,0.00,,,0.00,Weather View 32 v70,2013-08-21 19:45:00,
2013-08-21 09:49:00,76.8,66.6,29.99,NNE,32,12.0,19.0,71,0.00,,,0.00,Weather View 32 v70,2013-08-21 19:49:00,
2013-08-21 09:50:00,76.9,67.1,29.99,North,349,11.0,19.0,72,0.00,,,0.00,Weather View 32 v70,2013-08-21 19:50:00,
2013-08-21 09:54:00,77.1,67.7,29.99,NE,53,15.0,19.0,73,0.00,,,0.00,Weather View 32 v70,2013-08-21 19:54:00,
2013-08-21 10:00:00,77.1,67.3,29.98,NNE,28,19.0,22.0,72,0.00,,,0.00,Weather View 32 v70,2013-08-21 20:00:00,
2013-08-21 10:05:00,76.7,66.6,29.98,NE,34,10.0,22.0,71,0.00,,,0.00,Weather View 32 v70,2013-08-21 20:05:00,
2013-08-21 10:10:00,77.0,68.0,29.99,NE,44,13.0,22.0,74,0.00,,,0.00,Weather View 32 v70,2013-08-21 20:10:00,
2013-08-21 10:15:00,77.3,67.1,29.98,NNE,22,16.0,22.0,71,0.00,,,0.00,Weather View 32 v70,2013-08-21 20:15:00,
2013-08-21 10:17:00,77.1,66.5,29.99,NNE,15,13.0,22.0,70,0.00,,,0.00,Weather View 32 v70,2013-08-21 20:17:00,
2013-08-21 10:20:00,77.1,67.7,29.99,NE,37,8.0,22.0,73,0.00,,,0.00,Weather View 32 v70,2013-08-21 20:20:00,
2013-08-21 10:22:00,77.0,68.4,29.98,NNE,15,17.0,22.0,75,0.00,,,0.00,Weather View 32 v70,2013-08-21 20:22:00,
2013-08-21 10:25:00,76.9,68.7,29.99,NNW,347,12.0,22.0,76,0.00,,,0.00,Weather View 32 v70,2013-08-21 20:25:00,
2013-08-21 10:27:00,76.7,68.5,29.98,NNE,20,13.0,22.0,76,0.00,,,0.00,Weather View 32 v70,2013-08-21 20:27:00,
2013-08-21 10:30:00,76.7,68.5,29.98,NNE,20,15.0,22.0,76,0.00,,,0.00,Weather View 32 v70,2013-08-21 20:30:00,
2013-08-21 10:35:00,77.0,69.6,29.98,NNE,27,14.0,22.0,78,0.00,,,0.00,Weather View 32 v70,2013-08-21 20:35:00,
2013-08-21 10:40:00,77.1,69.3,29.98,NE,34,15.0,22.0,77,0.00,,,0.00,Weather View 32 v70,2013-08-21 20:40:00,
2013-08-21 10:45:00,76.6,68.4,29.98,NNE,18,10.0,22.0,76,0.00,,,0.00,Weather View 32 v70,2013-08-21 20:45:00,
2013-08-21 10:50:00,76.9,68.7,29.98,NE,41,14.0,22.0,76,0.00,,,0.00,Weather View 32 v70,2013-08-21 20:50:00,
2013-08-21 10:56:00,76.9,68.7,29.98,NE,43,13.0,22.0,76,0.00,,,0.00,Weather View 32 v70,2013-08-21 20:56:00,
2013-08-21 11:04:00,77.3,69.1,29.98,NE,42,18.0,20.0,76,0.00,,,0.00,Weather View 32 v70,2013-08-21 21:04:00,
2013-08-21 11:10:00,77.3,68.3,29.98,NE,51,8.0,20.0,74,0.00,,,0.00,Weather View 32 v70,2013-08-21 21:10:00,
2013-08-21 11:15:00,77.4,68.8,29.98,North,3,8.0,20.0,75,0.00,,,0.00,Weather View 32 v70,2013-08-21 21:15:00,
2013-08-21 11:16:00,77.4,68.8,29.98,NNW,346,7.0,20.0,75,0.00,,,0.00,Weather View 32 v70,2013-08-21 21:16:00,
2013-08-21 11:20:00,77.7,68.7,29.98,North,360,10.0,20.0,74,0.00,,,0.00,Weather View 32 v70,2013-08-21 21:20:00,
2013-08-21 11:22:00,77.8,68.8,29.98,NNE,14,5.0,20.0,74,0.00,,,0.00,Weather View 32 v70,2013-08-21 21:22:00,
2013-08-21 11:25:00,78.1,69.1,29.97,NNE,14,14.0,20.0,74,0.00,,,0.00,Weather View 32 v70,2013-08-21 21:25:00,
2013-08-21 11:28:00,77.4,68.4,29.97,North,8,14.0,20.0,74,0.00,,,0.00,Weather View 32 v70,2013-08-21 21:28:00,
2013-08-21 11:30:00,77.1,68.1,29.97,NNE,23,10.0,20.0,74,0.00,,,0.00,Weather View 32 v70,2013-08-21 21:30:00,
2013-08-21 11:33:00,77.2,69.0,29.97,North,353,7.0,20.0,76,0.00,,,0.00,Weather View 32 v70,2013-08-21 21:33:00,
2013-08-21 11:39:00,77.1,68.9,29.96,NE,34,15.0,18.0,76,0.00,,,0.00,Weather View 32 v70,2013-08-21 21:39:00,
2013-08-21 11:44:00,77.4,69.2,29.97,NNE,26,14.0,18.0,76,0.00,,,0.00,Weather View 32 v70,2013-08-21 21:44:00,
2013-08-21 11:50:00,77.4,69.6,29.96,North,353,13.0,18.0,77,0.00,,,0.00,Weather View 32 v70,2013-08-21 21:50:00,
2013-08-21 11:55:00,77.8,70.0,29.95,NE,42,17.0,18.0,77,0.00,,,0.00,Weather View 32 v70,2013-08-21 21:55:00,
2013-08-21 11:56:00,77.8,70.0,29.95,NNE,18,14.0,18.0,77,0.00,,,0.00,Weather View 32 v70,2013-08-21 21:56:00,
2013-08-21 12:00:00,77.8,69.2,29.96,NNE,31,10.0,20.0,75,0.00,,,0.00,Weather View 32 v70,2013-08-21 22:00:00,
2013-08-21 12:01:00,77.7,69.1,29.96,NE,41,12.0,20.0,75,0.00,,,0.00,Weather View 32 v70,2013-08-21 22:01:00,
2013-08-21 12:05:00,77.4,68.8,29.96,NNE,29,9.0,20.0,75,0.00,,,0.00,Weather View 32 v70,2013-08-21 22:05:00,
2013-08-21 12:07:00,77.5,69.7,29.96,NE,35,10.0,20.0,77,0.00,,,0.00,Weather View 32 v70,2013-08-21 22:07:00,
2013-08-21 12:12:00,77.8,69.6,29.96,NE,35,9.0,20.0,76,0.00,,,0.00,Weather View 32 v70,2013-08-21 22:12:00,
2013-08-21 12:17:00,78.3,69.7,29.96,NNE,31,8.0,20.0,75,0.00,,,0.00,Weather View 32 v70,2013-08-21 22:17:00,
2013-08-21 12:22:00,78.1,69.5,29.96,North,9,9.0,20.0,75,0.00,,,0.00,Weather View 32 v70,2013-08-21 22:22:00,
2013-08-21 12:30:00,77.5,68.5,29.96,NNE,23,8.0,22.0,74,0.00,,,0.00,Weather View 32 v70,2013-08-21 22:30:00,
2013-08-21 12:36:00,77.5,69.3,29.95,NE,46,15.0,22.0,76,0.00,,,0.00,Weather View 32 v70,2013-08-21 22:36:00,
2013-08-21 12:42:00,78.0,69.4,29.95,North,358,12.0,22.0,75,0.00,,,0.00,Weather View 32 v70,2013-08-21 22:42:00,
2013-08-21 12:47:00,77.8,69.2,29.95,NNE,14,13.0,22.0,75,0.00,,,0.00,Weather View 32 v70,2013-08-21 22:47:00,
2013-08-21 12:52:00,77.9,69.3,29.94,North,11,13.0,22.0,75,0.00,,,0.00,Weather View 32 v70,2013-08-21 22:52:00,
2013-08-21 12:58:00,78.0,70.2,29.94,North,3,13.0,22.0,77,0.00,,,0.00,Weather View 32 v70,2013-08-21 22:58:00,
2013-08-21 13:05:00,77.8,69.6,29.94,NNE,22,14.0,22.0,76,0.00,,,0.00,Weather View 32 v70,2013-08-21 23:05:00,
2013-08-21 13:12:00,77.5,68.9,29.94,North,6,12.0,22.0,75,0.00,,,0.00,Weather View 32 v70,2013-08-21 23:12:00,
2013-08-21 13:18:00,77.6,69.0,29.94,NNE,18,16.0,22.0,75,0.00,,,0.00,Weather View 32 v70,2013-08-21 23:18:00,
2013-08-21 13:24:00,77.8,68.0,29.94,NNE,14,16.0,22.0,72,0.00,,,0.00,Weather View 32 v70,2013-08-21 23:24:00,
2013-08-21 13:29:00,78.1,69.5,29.94,NNE,16,17.0,21.0,75,0.00,,,0.00,Weather View 32 v70,2013-08-21 23:29:00,
2013-08-21 13:36:00,77.7,69.1,29.93,North,357,19.0,21.0,75,0.00,,,0.00,Weather View 32 v70,2013-08-21 23:36:00,
2013-08-21 13:42:00,77.8,69.2,29.93,North,11,14.0,21.0,75,0.00,,,0.00,Weather View 32 v70,2013-08-21 23:42:00,
2013-08-21 13:47:00,77.8,69.2,29.93,NNE,29,12.0,21.0,75,0.00,,,0.00,Weather View 32 v70,2013-08-21 23:47:00,
2013-08-21 13:50:00,77.5,68.9,29.93,NNE,18,18.0,23.0,75,0.00,,,0.00,Weather View 32 v70,2013-08-21 23:50:00,
2013-08-21 13:53:00,77.3,69.1,29.93,NNE,18,18.0,23.0,76,0.00,,,0.00,Weather View 32 v70,2013-08-21 23:53:00,
2013-08-21 13:58:00,77.2,69.0,29.92,NNE,15,19.0,23.0,76,0.00,,,0.00,Weather View 32 v70,2013-08-21 23:58:00,
2013-08-21 14:04:00,77.3,68.7,29.93,NNE,23,13.0,23.0,75,0.00,,,0.00,Weather View 32 v70,2013-08-22 00:04:00,
2013-08-21 14:13:00,77.3,69.1,29.94,NNE,32,12.0,23.0,76,0.00,,,0.00,Weather View 32 v70,2013-08-22 00:13:00,
2013-08-21 14:18:00,77.4,68.8,29.93,NNE,27,11.0,23.0,75,0.00,,,0.00,Weather View 32 v70,2013-08-22 00:18:00,
2013-08-21 14:20:00,77.4,68.8,29.93,North,358,16.0,23.0,75,0.00,,,0.00,Weather View 32 v70,2013-08-22 00:20:00,
2013-08-21 14:24:00,77.2,69.0,29.92,North,10,15.0,23.0,76,0.00,,,0.00,Weather View 32 v70,2013-08-22 00:24:00,
2013-08-21 14:30:00,77.2,69.4,29.93,North,360,8.0,23.0,77,0.00,,,0.00,Weather View 32 v70,2013-08-22 00:30:00,
2013-08-21 14:35:00,77.4,69.6,29.92,North,10,16.0,25.0,77,0.00,,,0.00,Weather View 32 v70,2013-08-22 00:35:00,
2013-08-21 14:40:00,77.4,69.2,29.92,NNE,24,18.0,25.0,76,0.00,,,0.00,Weather View 32 v70,2013-08-22 00:40:00,
2013-08-21 14:45:00,77.1,68.9,29.92,North,6,20.0,25.0,76,0.00,,,0.00,Weather View 32 v70,2013-08-22 00:45:00,
2013-08-21 14:51:00,77.5,68.9,29.92,NNW,331,16.0,25.0,75,0.00,,,0.00,Weather View 32 v70,2013-08-22 00:51:00,
2013-08-21 14:59:00,77.1,68.9,29.91,NNW,343,16.0,25.0,76,0.00,,,0.00,Weather View 32 v70,2013-08-22 00:59:00,
2013-08-21 15:04:00,77.0,69.2,29.91,NE,41,13.0,25.0,77,0.00,,,0.00,Weather View 32 v70,2013-08-22 01:04:00,
2013-08-21 15:14:00,76.9,69.1,29.91,NNE,32,14.0,25.0,77,0.00,,,0.00,Weather View 32 v70,2013-08-22 01:14:00,
2013-08-21 15:20:00,76.7,68.9,29.91,NNW,346,14.0,25.0,77,0.00,,,0.00,Weather View 32 v70,2013-08-22 01:20:00,
2013-08-21 15:25:00,76.3,69.6,29.91,North,6,18.0,25.0,80,0.00,,,0.00,Weather View 32 v70,2013-08-22 01:25:00,
2013-08-21 15:29:00,76.3,69.6,29.91,North,2,20.0,25.0,80,0.00,,,0.00,Weather View 32 v70,2013-08-22 01:29:00,
2013-08-21 15:30:00,76.3,69.6,29.90,NNE,14,21.0,25.0,80,0.00,,,0.00,Weather View 32 v70,2013-08-22 01:30:00,
2013-08-21 15:34:00,75.8,69.5,29.91,North,1,19.0,25.0,81,0.00,,,0.00,Weather View 32 v70,2013-08-22 01:34:00,
2013-08-21 15:40:00,75.9,69.6,29.90,NNE,19,16.0,25.0,81,0.00,,,0.00,Weather View 32 v70,2013-08-22 01:40:00,
2013-08-21 15:45:00,76.0,69.4,29.91,North,6,14.0,25.0,80,0.00,,,0.00,Weather View 32 v70,2013-08-22 01:45:00,
2013-08-21 15:51:00,75.4,69.5,29.89,North,4,22.0,25.0,82,0.00,,,0.00,Weather View 32 v70,2013-08-22 01:51:00,
2013-08-21 15:57:00,74.9,69.7,29.89,North,4,18.0,25.0,84,0.00,,,0.00,Weather View 32 v70,2013-08-22 01:57:00,
2013-08-21 16:06:00,75.1,69.6,29.90,North,354,16.0,25.0,83,0.00,,,0.00,Weather View 32 v70,2013-08-22 02:06:00,
2013-08-21 16:13:00,75.1,69.6,29.91,North,6,17.0,25.0,83,0.00,,,0.00,Weather View 32 v70,2013-08-22 02:13:00,
2013-08-21 16:18:00,74.9,69.4,29.89,NNE,16,20.0,25.0,83,0.00,,,0.00,Weather View 32 v70,2013-08-22 02:18:00,
2013-08-21 16:24:00,74.4,69.2,29.91,North,357,19.0,26.0,84,0.00,,,0.00,Weather View 32 v70,2013-08-22 02:24:00,
2013-08-21 16:30:00,74.4,69.2,29.90,North,10,22.0,26.0,84,0.00,,,0.00,Weather View 32 v70,2013-08-22 02:30:00,
2013-08-21 16:31:00,74.5,69.3,29.91,NNE,13,20.0,26.0,84,0.00,,,0.00,Weather View 32 v70,2013-08-22 02:31:00,
2013-08-21 16:35:00,74.4,69.6,29.90,North,9,23.0,26.0,85,0.00,,,0.00,Weather View 32 v70,2013-08-22 02:35:00,
2013-08-21 16:37:00,74.3,69.5,29.90,North,8,20.0,26.0,85,0.00,,,0.00,Weather View 32 v70,2013-08-22 02:37:00,
2013-08-21 16:43:00,74.2,69.4,29.91,NNE,14,21.0,27.0,85,0.00,,,0.00,Weather View 32 v70,2013-08-22 02:43:00,
2013-08-21 16:48:00,74.1,69.3,29.90,NNE,21,14.0,27.0,85,0.00,,,0.00,Weather View 32 v70,2013-08-22 02:48:00,
2013-08-21 16:53:00,74.3,69.5,29.90,North,1,16.0,27.0,85,0.00,,,0.00,Weather View 32 v70,2013-08-22 02:53:00,
2013-08-21 17:02:00,74.3,69.1,29.91,North,360,13.0,27.0,84,0.00,,,0.00,Weather View 32 v70,2013-08-22 03:02:00,
2013-08-21 17:07:00,74.4,69.2,29.91,North,6,21.0,27.0,84,0.00,,,0.00,Weather View 32 v70,2013-08-22 03:07:00,
2013-08-21 17:13:00,74.4,69.2,29.92,NNE,17,21.0,27.0,84,0.00,,,0.00,Weather View 32 v70,2013-08-22 03:13:00,
2013-08-21 17:18:00,74.0,69.2,29.91,NNE,19,14.0,27.0,85,0.00,,,0.00,Weather View 32 v70,2013-08-22 03:18:00,
2013-08-21 17:23:00,74.0,69.2,29.92,NNE,14,16.0,27.0,85,0.00,,,0.00,Weather View 32 v70,2013-08-22 03:23:00,
2013-08-21 17:28:00,73.9,69.1,29.92,North,353,10.0,27.0,85,0.00,,,0.00,Weather View 32 v70,2013-08-22 03:28:00,
2013-08-21 17:33:00,73.8,69.0,29.92,North,11,12.0,27.0,85,0.00,,,0.00,Weather View 32 v70,2013-08-22 03:33:00,
2013-08-21 17:38:00,73.9,69.1,29.92,NNE,28,15.0,27.0,85,0.00,,,0.00,Weather View 32 v70,2013-08-22 03:38:00,
2013-08-21 17:43:00,73.9,69.1,29.92,NNW,341,14.0,25.0,85,0.00,,,0.00,Weather View 32 v70,2013-08-22 03:43:00,
2013-08-21 17:48:00,73.9,69.1,29.92,NNE,28,12.0,25.0,85,0.00,,,0.00,Weather View 32 v70,2013-08-22 03:48:00,
2013-08-21 17:53:00,74.0,69.2,29.93,North,5,13.0,25.0,85,0.00,,,0.00,Weather View 32 v70,2013-08-22 03:53:00,
2013-08-21 17:58:00,73.9,69.4,29.92,North,4,14.0,25.0,86,0.00,,,0.00,Weather View 32 v70,2013-08-22 03:58:00,
2013-08-21 18:01:00,73.8,69.3,29.92,NNE,16,18.0,25.0,86,0.00,,,0.00,Weather View 32 v70,2013-08-22 04:01:00,
2013-08-21 18:02:00,73.8,69.3,29.93,North,3,15.0,25.0,86,0.00,,,0.00,Weather View 32 v70,2013-08-22 04:02:00,
2013-08-21 18:07:00,73.6,69.1,29.94,North,1,8.0,25.0,86,0.00,,,0.00,Weather View 32 v70,2013-08-22 04:07:00,
2013-08-21 18:12:00,73.9,69.1,29.93,North,357,11.0,25.0,85,0.00,,,0.00,Weather View 32 v70,2013-08-22 04:12:00,
2013-08-21 18:17:00,73.8,69.3,29.94,NNE,22,11.0,23.0,86,0.00,,,0.00,Weather View 32 v70,2013-08-22 04:17:00,
2013-08-21 18:22:00,73.6,69.1,29.93,North,4,9.0,21.0,86,0.00,,,0.00,Weather View 32 v70,2013-08-22 04:22:00,
2013-08-21 18:27:00,73.7,68.9,29.94,North,353,7.0,21.0,85,0.00,,,0.00,Weather View 32 v70,2013-08-22 04:27:00,
2013-08-21 18:32:00,74.0,68.8,29.94,North,355,9.0,21.0,84,0.00,,,0.00,Weather View 32 v70,2013-08-22 04:32:00,
2013-08-21 18:37:00,74.1,69.3,29.94,NNE,20,9.0,21.0,85,0.00,,,0.00,Weather View 32 v70,2013-08-22 04:37:00,
2013-08-21 18:42:00,73.7,69.6,29.94,NNE,25,14.0,21.0,87,0.00,,,0.00,Weather View 32 v70,2013-08-22 04:42:00,
2013-08-21 18:47:00,73.5,69.4,29.94,North,2,13.0,21.0,87,0.00,,,0.00,Weather View 32 v70,2013-08-22 04:47:00,
2013-08-21 18:52:00,73.4,69.3,29.93,North,5,15.0,22.0,87,0.00,,,0.00,Weather View 32 v70,2013-08-22 04:52:00,
2013-08-21 18:57:00,73.3,69.2,29.94,North,6,14.0,23.0,87,0.00,,,0.00,Weather View 32 v70,2013-08-22 04:57:00,
2013-08-21 19:02:00,73.4,69.3,29.94,North,355,12.0,23.0,87,0.00,,,0.00,Weather View 32 v70,2013-08-22 05:02:00,
2013-08-21 19:07:00,73.4,69.3,29.95,NNE,30,11.0,23.0,87,0.00,,,0.00,Weather View 32 v70,2013-08-22 05:07:00,
2013-08-21 19:12:00,73.4,68.9,29.95,North,351,12.0,23.0,86,0.00,,,0.00,Weather View 32 v70,2013-08-22 05:12:00,
2013-08-21 19:17:00,73.5,69.0,29.95,North,349,6.0,23.0,86,0.00,,,0.00,Weather View 32 v70,2013-08-22 05:17:00,
2013-08-21 19:22:00,73.5,69.0,29.95,North,9,11.0,23.0,86,0.00,,,0.00,Weather View 32 v70,2013-08-22 05:22:00,
2013-08-21 19:27:00,73.4,69.3,29.95,NNE,26,8.0,23.0,87,0.00,,,0.00,Weather View 32 v70,2013-08-22 05:27:00,
2013-08-21 19:32:00,73.3,68.8,29.96,North,352,3.0,23.0,86,0.00,,,0.00,Weather View 32 v70,2013-08-22 05:32:00,
2013-08-21 19:37:00,73.3,69.2,29.96,NNW,332,11.0,23.0,87,0.00,,,0.00,Weather View 32 v70,2013-08-22 05:37:00,
2013-08-21 19:42:00,73.1,69.0,29.95,NNW,332,8.0,23.0,87,0.00,,,0.00,Weather View 32 v70,2013-08-22 05:42:00,
2013-08-21 19:47:00,73.0,68.2,29.96,NNW,328,4.0,23.0,85,0.00,,,0.00,Weather View 32 v70,2013-08-22 05:47:00,
2013-08-21 19:52:00,73.1,67.6,29.96,NNW,329,2.0,23.0,83,0.00,,,0.00,Weather View 32 v70,2013-08-22 05:52:00,
2013-08-21 19:57:00,73.3,67.1,29.96,NNW,330,1.0,21.0,81,0.00,,,0.00,Weather View 32 v70,2013-08-22 05:57:00,
2013-08-21 20:02:00,73.5,66.9,29.96,SSW,211,3.0,16.0,80,0.00,,,0.00,Weather View 32 v70,2013-08-22 06:02:00,
2013-08-21 20:07:00,74.0,67.4,29.96,South,190,1.0,16.0,80,0.00,,,0.00,Weather View 32 v70,2013-08-22 06:07:00,
2013-08-21 20:12:00,74.3,67.0,29.96,SSW,213,4.0,15.0,78,0.00,,,0.00,Weather View 32 v70,2013-08-22 06:12:00,
2013-08-21 20:18:00,75.0,67.3,29.96,SSW,193,4.0,15.0,77,0.00,,,0.00,Weather View 32 v70,2013-08-22 06:18:00,
2013-08-21 20:23:00,75.2,67.1,29.97,SSW,199,3.0,15.0,76,0.00,,,0.00,Weather View 32 v70,2013-08-22 06:23:00,
2013-08-21 20:28:00,75.2,67.1,29.97,SSW,208,2.0,15.0,76,0.00,,,0.00,Weather View 32 v70,2013-08-22 06:28:00,
2013-08-21 20:33:00,75.4,67.3,29.97,SSW,208,3.0,15.0,76,0.00,,,0.00,Weather View 32 v70,2013-08-22 06:33:00,
2013-08-21 20:38:00,75.5,67.4,29.97,South,180,0.0,14.0,76,0.00,,,0.00,Weather View 32 v70,2013-08-22 06:38:00,
2013-08-21 20:43:00,75.5,67.4,29.97,SE,139,0.0,9.0,76,0.00,,,0.00,Weather View 32 v70,2013-08-22 06:43:00,
2013-08-21 20:48:00,75.3,67.2,29.97,SE,139,0.0,7.0,76,0.00,,,0.00,Weather View 32 v70,2013-08-22 06:48:00,
2013-08-21 20:53:00,75.1,67.4,29.98,SE,145,0.0,7.0,77,0.00,,,0.00,Weather View 32 v70,2013-08-22 06:53:00,
2013-08-21 20:58:00,74.8,67.5,29.98,SSW,206,3.0,7.0,78,0.00,,,0.00,Weather View 32 v70,2013-08-22 06:58:00,
2013-08-21 21:03:00,74.6,67.6,29.98,SW,218,2.0,7.0,79,0.00,,,0.00,Weather View 32 v70,2013-08-22 07:03:00,
2013-08-21 21:08:00,74.5,67.9,29.99,SW,214,2.0,7.0,80,0.00,,,0.00,Weather View 32 v70,2013-08-22 07:08:00,
2013-08-21 21:13:00,74.4,67.8,29.99,SSW,212,1.0,7.0,80,0.00,,,0.00,Weather View 32 v70,2013-08-22 07:13:00,
2013-08-21 21:18:00,74.4,67.8,29.99,SSW,212,1.0,4.0,80,0.00,,,0.00,Weather View 32 v70,2013-08-22 07:18:00,
2013-08-21 21:23:00,74.3,67.7,29.99,SSW,213,0.0,4.0,80,0.00,,,0.00,Weather View 32 v70,2013-08-22 07:23:00,
2013-08-21 21:28:00,74.2,67.6,29.99,SSW,213,0.0,4.0,80,0.00,,,0.00,Weather View 32 v70,2013-08-22 07:28:00,
2013-08-21 21:33:00,74.0,67.4,29.99,SSW,212,0.0,4.0,80,0.00,,,0.00,Weather View 32 v70,2013-08-22 07:33:00,
2013-08-21 21:38:00,73.9,67.7,29.99,SSW,212,0.0,4.0,81,0.00,,,0.00,Weather View 32 v70,2013-08-22 07:38:00,
2013-08-21 21:43:00,73.8,67.6,29.99,SSW,212,0.0,4.0,81,0.00,,,0.00,Weather View 32 v70,2013-08-22 07:43:00,
2013-08-21 21:48:00,73.6,67.4,29.99,SSW,213,0.0,4.0,81,0.00,,,0.00,Weather View 32 v70,2013-08-22 07:48:00,
2013-08-21 21:53:00,73.5,67.3,29.99,West,278,2.0,4.0,81,0.00,,,0.00,Weather View 32 v70,2013-08-22 07:53:00,
2013-08-21 21:58:00,73.4,67.2,29.99,West,278,0.0,4.0,81,0.00,,,0.00,Weather View 32 v70,2013-08-22 07:58:00,
2013-08-21 22:03:00,73.5,67.3,29.99,West,278,0.0,4.0,81,0.00,,,0.00,Weather View 32 v70,2013-08-22 08:03:00,
2013-08-21 22:08:00,73.7,67.1,29.99,West,278,0.0,4.0,80,0.00,,,0.00,Weather View 32 v70,2013-08-22 08:08:00,
2013-08-21 22:13:00,73.7,67.1,29.99,West,278,0.0,4.0,80,0.00,,,0.00,Weather View 32 v70,2013-08-22 08:13:00,
2013-08-21 22:18:00,73.7,66.8,29.99,NW,309,2.0,4.0,79,0.00,,,0.00,Weather View 32 v70,2013-08-22 08:18:00,
2013-08-21 22:23:00,73.7,66.8,29.99,WNW,296,5.0,6.0,79,0.00,,,0.00,Weather View 32 v70,2013-08-22 08:23:00,
2013-08-21 22:28:00,73.6,66.3,29.99,NNW,345,6.0,7.0,78,0.00,,,0.00,Weather View 32 v70,2013-08-22 08:28:00,
2013-08-21 22:33:00,74.1,66.4,29.99,NNW,330,4.0,8.0,77,0.00,,,0.00,Weather View 32 v70,2013-08-22 08:33:00,
2013-08-21 22:38:00,74.3,66.6,29.99,NNW,343,4.0,8.0,77,0.00,,,0.00,Weather View 32 v70,2013-08-22 08:38:00,
2013-08-21 22:43:00,74.5,66.8,29.99,North,349,2.0,8.0,77,0.00,,,0.00,Weather View 32 v70,2013-08-22 08:43:00,
2013-08-21 22:49:00,74.6,66.5,29.99,NNW,329,3.0,8.0,76,0.00,,,0.00,Weather View 32 v70,2013-08-22 08:49:00,
2013-08-21 22:54:00,74.5,66.4,29.99,WSW,251,1.0,8.0,76,0.00,,,0.00,Weather View 32 v70,2013-08-22 08:54:00,
2013-08-21 22:59:00,74.6,66.5,29.99,SW,233,0.0,8.0,76,0.00,,,0.00,Weather View 32 v70,2013-08-22 08:59:00,
2013-08-21 23:04:00,74.6,66.5,29.99,South,175,1.0,8.0,76,0.00,,,0.00,Weather View 32 v70,2013-08-22 09:04:00,
2013-08-21 23:09:00,74.6,66.5,29.99,South,174,1.0,8.0,76,0.00,,,0.00,Weather View 32 v70,2013-08-22 09:09:00,
2013-08-21 23:14:00,74.6,66.5,29.99,South,176,0.0,8.0,76,0.00,,,0.00,Weather View 32 v70,2013-08-22 09:14:00,
2013-08-21 23:19:00,74.6,66.5,29.99,South,176,0.0,8.0,76,0.00,,,0.00,Weather View 32 v70,2013-08-22 09:19:00,
2013-08-21 23:24:00,74.4,66.3,29.99,West,270,3.0,8.0,76,0.00,,,0.00,Weather View 32 v70,2013-08-22 09:24:00,
2013-08-21 23:29:00,74.0,65.9,29.99,WNW,297,1.0,8.0,76,0.00,,,0.00,Weather View 32 v70,2013-08-22 09:29:00,
2013-08-21 23:34:00,73.8,66.1,29.99,SW,228,2.0,8.0,77,0.00,,,0.00,Weather View 32 v70,2013-08-22 09:34:00,
2013-08-21 23:39:00,73.9,66.2,29.98,West,259,4.0,7.0,77,0.00,,,0.00,Weather View 32 v70,2013-08-22 09:39:00,
2013-08-21 23:44:00,74.0,66.3,29.98,WNW,294,6.0,7.0,77,0.00,,,0.00,Weather View 32 v70,2013-08-22 09:44:00,
2013-08-21 23:49:00,73.9,65.8,29.98,WNW,299,8.0,8.0,76,0.00,,,0.00,Weather View 32 v70,2013-08-22 09:49:00,
2013-08-21 23:54:00,74.2,65.7,29.98,NW,318,1.0,8.0,75,0.00,,,0.00,Weather View 32 v70,2013-08-22 09:54:00,
2013-08-21 23:59:00,74.5,66.0,29.98,WNW,300,4.0,8.0,75,0.00,,,0.00,Weather View 32 v70,2013-08-22 09:59:00,